sensor_id;sensor_type;location;lat;lon;timestamp;P1;durP1;ratioP1;P2;durP2;ratioP2
55409;SDS011;41279;43.546;16.426;2023-04-01T00:00:08;12.98;;;4.03;;
55409;SDS011;41279;43.546;16.426;2023-04-01T00:02:34;13.90;;;4.25;;
55409;SDS011;41279;43.546;16.426;2023-04-01T00:05:00;14.15;;;4.65;;
55409;SDS011;41279;43.546;16.426;2023-04-01T00:07:26;18.05;;;5.07;;
55409;SDS011;41279;43.546;16.426;2023-04-01T00:09:52;15.93;;;4.35;;
55409;SDS011;41279;43.546;16.426;2023-04-01T00:12:17;15.57;;;4.32;;
55409;SDS011;41279;43.546;16.426;2023-04-01T00:14:43;13.27;;;4.63;;
55409;SDS011;41279;43.546;16.426;2023-04-01T00:17:09;14.23;;;3.95;;
55409;SDS011;41279;43.546;16.426;2023-04-01T00:19:42;10.97;;;4.27;;
55409;SDS011;41279;43.546;16.426;2023-04-01T00:22:14;16.75;;;4.85;;
55409;SDS011;41279;43.546;16.426;2023-04-01T00:24:40;14.27;;;4.57;;
55409;SDS011;41279;43.546;16.426;2023-04-01T00:27:06;14.48;;;4.70;;
55409;SDS011;41279;43.546;16.426;2023-04-01T00:29:33;14.38;;;4.25;;
55409;SDS011;41279;43.546;16.426;2023-04-01T00:31:58;16.30;;;4.57;;
55409;SDS011;41279;43.546;16.426;2023-04-01T00:34:24;10.90;;;3.95;;
55409;SDS011;41279;43.546;16.426;2023-04-01T00:36:50;14.38;;;4.68;;
55409;SDS011;41279;43.546;16.426;2023-04-01T00:39:17;13.82;;;4.43;;
55409;SDS011;41279;43.546;16.426;2023-04-01T00:41:42;17.50;;;4.35;;
55409;SDS011;41279;43.546;16.426;2023-04-01T00:44:14;16.90;;;4.15;;
55409;SDS011;41279;43.546;16.426;2023-04-01T00:46:47;14.95;;;4.25;;
55409;SDS011;41279;43.546;16.426;2023-04-01T00:49:14;10.90;;;4.45;;
55409;SDS011;41279;43.546;16.426;2023-04-01T00:51:42;11.30;;;4.00;;
55409;SDS011;41279;43.546;16.426;2023-04-01T00:54:11;11.75;;;4.10;;
55409;SDS011;41279;43.546;16.426;2023-04-01T00:56:52;17.85;;;4.45;;
55409;SDS011;41279;43.546;16.426;2023-04-01T00:59:25;13.98;;;4.15;;
55409;SDS011;41279;43.546;16.426;2023-04-01T01:01:54;16.33;;;4.60;;
55409;SDS011;41279;43.546;16.426;2023-04-01T01:04:27;14.60;;;5.13;;
55409;SDS011;41279;43.546;16.426;2023-04-01T01:12:45;15.75;;;4.53;;
55409;SDS011;41279;43.546;16.426;2023-04-01T01:17:54;10.07;;;4.28;;
55409;SDS011;41279;43.546;16.426;2023-04-01T01:23:23;18.88;;;4.53;;
55409;SDS011;41279;43.546;16.426;2023-04-01T01:32:34;13.18;;;4.78;;
55409;SDS011;41279;43.546;16.426;2023-04-01T01:35:16;13.25;;;4.38;;
55409;SDS011;41279;43.546;16.426;2023-04-01T01:37:44;13.23;;;4.70;;
55409;SDS011;41279;43.546;16.426;2023-04-01T01:40:12;11.55;;;3.92;;
55409;SDS011;41279;43.546;16.426;2023-04-01T01:42:41;14.80;;;4.50;;
55409;SDS011;41279;43.546;16.426;2023-04-01T01:45:18;14.82;;;4.57;;
55409;SDS011;41279;43.546;16.426;2023-04-01T01:47:46;15.10;;;4.10;;
55409;SDS011;41279;43.546;16.426;2023-04-01T01:50:14;11.70;;;3.95;;
55409;SDS011;41279;43.546;16.426;2023-04-01T01:52:41;12.40;;;4.00;;
55409;SDS011;41279;43.546;16.426;2023-04-01T01:55:23;12.30;;;4.70;;
55409;SDS011;41279;43.546;16.426;2023-04-01T01:58:24;12.65;;;4.15;;
55409;SDS011;41279;43.546;16.426;2023-04-01T02:01:00;15.18;;;3.92;;
55409;SDS011;41279;43.546;16.426;2023-04-01T02:03:28;15.50;;;4.93;;
55409;SDS011;41279;43.546;16.426;2023-04-01T02:05:58;10.93;;;4.60;;
55409;SDS011;41279;43.546;16.426;2023-04-01T02:11:03;15.97;;;5.40;;
55409;SDS011;41279;43.546;16.426;2023-04-01T02:13:43;12.20;;;4.78;;
55409;SDS011;41279;43.546;16.426;2023-04-01T02:16:39;14.57;;;3.95;;
55409;SDS011;41279;43.546;16.426;2023-04-01T02:19:08;16.27;;;4.93;;
55409;SDS011;41279;43.546;16.426;2023-04-01T02:21:37;17.15;;;4.70;;
55409;SDS011;41279;43.546;16.426;2023-04-01T02:24:05;14.70;;;4.78;;
55409;SDS011;41279;43.546;16.426;2023-04-01T02:26:35;14.70;;;4.50;;
55409;SDS011;41279;43.546;16.426;2023-04-01T02:29:00;14.52;;;4.72;;
55409;SDS011;41279;43.546;16.426;2023-04-01T02:31:28;16.48;;;4.85;;
55409;SDS011;41279;43.546;16.426;2023-04-01T02:33:55;10.32;;;4.40;;
55409;SDS011;41279;43.546;16.426;2023-04-01T02:36:21;16.88;;;4.78;;
55409;SDS011;41279;43.546;16.426;2023-04-01T02:38:46;13.93;;;4.97;;
55409;SDS011;41279;43.546;16.426;2023-04-01T02:41:15;14.48;;;5.18;;
55409;SDS011;41279;43.546;16.426;2023-04-01T02:43:40;22.63;;;5.78;;
55409;SDS011;41279;43.546;16.426;2023-04-01T02:46:06;17.45;;;4.95;;
55409;SDS011;41279;43.546;16.426;2023-04-01T02:48:31;15.77;;;4.60;;
55409;SDS011;41279;43.546;16.426;2023-04-01T02:50:57;18.55;;;5.30;;
55409;SDS011;41279;43.546;16.426;2023-04-01T02:53:22;11.88;;;4.53;;
55409;SDS011;41279;43.546;16.426;2023-04-01T02:55:48;15.38;;;5.00;;
55409;SDS011;41279;43.546;16.426;2023-04-01T02:58:15;15.73;;;5.15;;
55409;SDS011;41279;43.546;16.426;2023-04-01T03:00:41;15.57;;;5.32;;
55409;SDS011;41279;43.546;16.426;2023-04-01T03:03:07;13.52;;;4.57;;
55409;SDS011;41279;43.546;16.426;2023-04-01T03:05:33;16.33;;;5.15;;
55409;SDS011;41279;43.546;16.426;2023-04-01T03:07:59;14.38;;;5.40;;
55409;SDS011;41279;43.546;16.426;2023-04-01T03:10:24;13.45;;;4.53;;
55409;SDS011;41279;43.546;16.426;2023-04-01T03:12:50;13.90;;;4.40;;
55409;SDS011;41279;43.546;16.426;2023-04-01T03:15:15;14.80;;;5.20;;
55409;SDS011;41279;43.546;16.426;2023-04-01T03:17:41;18.90;;;5.47;;
55409;SDS011;41279;43.546;16.426;2023-04-01T03:20:08;17.40;;;6.07;;
55409;SDS011;41279;43.546;16.426;2023-04-01T03:22:35;13.32;;;4.88;;
55409;SDS011;41279;43.546;16.426;2023-04-01T03:25:01;15.82;;;5.28;;
55409;SDS011;41279;43.546;16.426;2023-04-01T03:27:28;11.77;;;5.20;;
55409;SDS011;41279;43.546;16.426;2023-04-01T03:29:53;10.88;;;4.47;;
55409;SDS011;41279;43.546;16.426;2023-04-01T03:32:18;13.98;;;5.05;;
55409;SDS011;41279;43.546;16.426;2023-04-01T03:34:44;14.13;;;4.72;;
55409;SDS011;41279;43.546;16.426;2023-04-01T03:37:10;11.50;;;4.18;;
55409;SDS011;41279;43.546;16.426;2023-04-01T03:39:35;11.75;;;4.95;;
55409;SDS011;41279;43.546;16.426;2023-04-01T03:42:01;14.88;;;4.68;;
55409;SDS011;41279;43.546;16.426;2023-04-01T03:44:30;11.07;;;4.20;;
55409;SDS011;41279;43.546;16.426;2023-04-01T03:46:56;15.95;;;5.13;;
55409;SDS011;41279;43.546;16.426;2023-04-01T03:49:21;17.35;;;5.05;;
55409;SDS011;41279;43.546;16.426;2023-04-01T03:51:47;17.60;;;5.57;;
55409;SDS011;41279;43.546;16.426;2023-04-01T03:54:12;13.73;;;5.50;;
55409;SDS011;41279;43.546;16.426;2023-04-01T03:56:38;18.98;;;5.50;;
55409;SDS011;41279;43.546;16.426;2023-04-01T03:59:05;16.65;;;5.43;;
55409;SDS011;41279;43.546;16.426;2023-04-01T04:01:31;26.27;;;6.03;;
55409;SDS011;41279;43.546;16.426;2023-04-01T04:03:57;18.13;;;5.15;;
55409;SDS011;41279;43.546;16.426;2023-04-01T04:06:24;26.50;;;6.13;;
55409;SDS011;41279;43.546;16.426;2023-04-01T04:08:50;20.95;;;4.68;;
55409;SDS011;41279;43.546;16.426;2023-04-01T04:11:16;19.98;;;4.38;;
55409;SDS011;41279;43.546;16.426;2023-04-01T04:13:42;15.88;;;3.80;;
55409;SDS011;41279;43.546;16.426;2023-04-01T04:16:07;11.55;;;3.03;;
55409;SDS011;41279;43.546;16.426;2023-04-01T04:18:34;19.58;;;3.85;;
55409;SDS011;41279;43.546;16.426;2023-04-01T04:21:00;24.92;;;4.88;;
55409;SDS011;41279;43.546;16.426;2023-04-01T04:23:26;12.00;;;3.75;;
55409;SDS011;41279;43.546;16.426;2023-04-01T04:28:27;9.57;;;3.20;;
55409;SDS011;41279;43.546;16.426;2023-04-01T04:30:53;14.80;;;3.42;;
55409;SDS011;41279;43.546;16.426;2023-04-01T04:33:21;9.52;;;3.22;;
55409;SDS011;41279;43.546;16.426;2023-04-01T04:35:47;10.73;;;3.78;;
55409;SDS011;41279;43.546;16.426;2023-04-01T04:38:12;9.15;;;2.78;;
55409;SDS011;41279;43.546;16.426;2023-04-01T04:40:38;13.38;;;4.38;;
55409;SDS011;41279;43.546;16.426;2023-04-01T04:43:04;1.15;;;1.15;;
55409;SDS011;41279;43.546;16.426;2023-04-01T04:45:30;0.30;;;0.30;;
55409;SDS011;41279;43.546;16.426;2023-04-01T04:47:56;1.88;;;1.77;;
55409;SDS011;41279;43.546;16.426;2023-04-01T04:50:22;0.20;;;0.20;;
55409;SDS011;41279;43.546;16.426;2023-04-01T04:52:48;0.20;;;0.20;;
55409;SDS011;41279;43.546;16.426;2023-04-01T04:55:14;0.22;;;0.22;;
55409;SDS011;41279;43.546;16.426;2023-04-01T04:57:40;0.30;;;0.30;;
55409;SDS011;41279;43.546;16.426;2023-04-01T05:00:06;1.55;;;1.02;;
55409;SDS011;41279;43.546;16.426;2023-04-01T05:02:32;4.72;;;1.50;;
55409;SDS011;41279;43.546;16.426;2023-04-01T05:04:58;2.67;;;1.38;;
55409;SDS011;41279;43.546;16.426;2023-04-01T05:07:23;1.00;;;0.90;;
55409;SDS011;41279;43.546;16.426;2023-04-01T05:09:49;0.77;;;0.73;;
55409;SDS011;41279;43.546;16.426;2023-04-01T05:12:15;1.75;;;1.00;;
55409;SDS011;41279;43.546;16.426;2023-04-01T05:14:40;0.73;;;0.60;;
55409;SDS011;41279;43.546;16.426;2023-04-01T05:17:09;0.82;;;0.60;;
55409;SDS011;41279;43.546;16.426;2023-04-01T05:19:42;0.30;;;0.30;;
55409;SDS011;41279;43.546;16.426;2023-04-01T05:22:14;0.60;;;0.60;;
55409;SDS011;41279;43.546;16.426;2023-04-01T05:24:39;0.50;;;0.50;;
55409;SDS011;41279;43.546;16.426;2023-04-01T05:27:05;0.50;;;0.50;;
55409;SDS011;41279;43.546;16.426;2023-04-01T05:29:30;0.80;;;0.80;;
55409;SDS011;41279;43.546;16.426;2023-04-01T05:31:56;0.50;;;0.50;;
55409;SDS011;41279;43.546;16.426;2023-04-01T05:34:21;0.30;;;0.30;;
55409;SDS011;41279;43.546;16.426;2023-04-01T05:36:47;0.38;;;0.38;;
55409;SDS011;41279;43.546;16.426;2023-04-01T05:39:12;0.70;;;0.63;;
55409;SDS011;41279;43.546;16.426;2023-04-01T05:41:38;0.50;;;0.50;;
55409;SDS011;41279;43.546;16.426;2023-04-01T05:44:04;0.30;;;0.30;;
55409;SDS011;41279;43.546;16.426;2023-04-01T05:46:30;0.45;;;0.45;;
55409;SDS011;41279;43.546;16.426;2023-04-01T05:48:56;0.60;;;0.60;;
55409;SDS011;41279;43.546;16.426;2023-04-01T05:51:22;0.28;;;0.28;;
55409;SDS011;41279;43.546;16.426;2023-04-01T05:53:47;0.20;;;0.20;;
55409;SDS011;41279;43.546;16.426;2023-04-01T05:56:13;0.25;;;0.25;;
55409;SDS011;41279;43.546;16.426;2023-04-01T05:58:39;0.57;;;0.57;;
55409;SDS011;41279;43.546;16.426;2023-04-01T06:01:09;0.73;;;0.68;;
55409;SDS011;41279;43.546;16.426;2023-04-01T06:03:35;1.40;;;0.88;;
55409;SDS011;41279;43.546;16.426;2023-04-01T06:06:01;0.40;;;0.40;;
55409;SDS011;41279;43.546;16.426;2023-04-01T06:08:27;0.30;;;0.30;;
55409;SDS011;41279;43.546;16.426;2023-04-01T06:13:32;0.30;;;0.30;;
55409;SDS011;41279;43.546;16.426;2023-04-01T06:16:38;0.30;;;0.30;;
55409;SDS011;41279;43.546;16.426;2023-04-01T06:27:36;0.20;;;0.20;;
55409;SDS011;41279;43.546;16.426;2023-04-01T06:30:38;0.20;;;0.20;;
55409;SDS011;41279;43.546;16.426;2023-04-01T06:33:27;0.30;;;0.30;;
55409;SDS011;41279;43.546;16.426;2023-04-01T06:39:15;0.30;;;0.30;;
55409;SDS011;41279;43.546;16.426;2023-04-01T06:44:39;0.20;;;0.20;;
55409;SDS011;41279;43.546;16.426;2023-04-01T06:47:23;0.30;;;0.30;;
55409;SDS011;41279;43.546;16.426;2023-04-01T06:53:18;0.30;;;0.30;;
55409;SDS011;41279;43.546;16.426;2023-04-01T06:58:22;0.45;;;0.45;;
55409;SDS011;41279;43.546;16.426;2023-04-01T07:00:51;0.25;;;0.25;;
55409;SDS011;41279;43.546;16.426;2023-04-01T07:03:38;0.20;;;0.20;;
55409;SDS011;41279;43.546;16.426;2023-04-01T07:06:13;0.30;;;0.30;;
55409;SDS011;41279;43.546;16.426;2023-04-01T07:08:44;0.45;;;0.45;;
55409;SDS011;41279;43.546;16.426;2023-04-01T07:11:17;0.20;;;0.20;;
55409;SDS011;41279;43.546;16.426;2023-04-01T07:14:00;0.38;;;0.38;;
55409;SDS011;41279;43.546;16.426;2023-04-01T07:19:08;0.30;;;0.30;;
55409;SDS011;41279;43.546;16.426;2023-04-01T07:21:53;0.35;;;0.35;;
55409;SDS011;41279;43.546;16.426;2023-04-01T07:24:34;0.30;;;0.30;;
55409;SDS011;41279;43.546;16.426;2023-04-01T07:27:03;0.30;;;0.30;;
55409;SDS011;41279;43.546;16.426;2023-04-01T07:29:34;0.35;;;0.35;;
55409;SDS011;41279;43.546;16.426;2023-04-01T07:32:13;0.30;;;0.30;;
55409;SDS011;41279;43.546;16.426;2023-04-01T07:37:18;0.57;;;0.57;;
55409;SDS011;41279;43.546;16.426;2023-04-01T07:40:20;0.40;;;0.40;;
55409;SDS011;41279;43.546;16.426;2023-04-01T07:42:56;0.40;;;0.40;;
55409;SDS011;41279;43.546;16.426;2023-04-01T07:51:27;0.40;;;0.40;;
55409;SDS011;41279;43.546;16.426;2023-04-01T07:59:21;0.40;;;0.40;;
55409;SDS011;41279;43.546;16.426;2023-04-01T08:01:49;0.60;;;0.60;;
55409;SDS011;41279;43.546;16.426;2023-04-01T08:07:22;0.65;;;0.65;;
55409;SDS011;41279;43.546;16.426;2023-04-01T08:09:54;0.70;;;0.70;;
55409;SDS011;41279;43.546;16.426;2023-04-01T08:20:48;0.93;;;0.93;;
55409;SDS011;41279;43.546;16.426;2023-04-01T08:34:23;0.50;;;0.50;;
55409;SDS011;41279;43.546;16.426;2023-04-01T08:36:57;0.68;;;0.68;;
55409;SDS011;41279;43.546;16.426;2023-04-01T08:45:21;0.60;;;0.60;;
55409;SDS011;41279;43.546;16.426;2023-04-01T09:06:24;0.80;;;0.80;;
55409;SDS011;41279;43.546;16.426;2023-04-01T09:12:41;1.10;;;1.00;;
55409;SDS011;41279;43.546;16.426;2023-04-01T09:21:16;1.70;;;0.90;;
55409;SDS011;41279;43.546;16.426;2023-04-01T09:34:54;1.27;;;1.02;;
55409;SDS011;41279;43.546;16.426;2023-04-01T10:21:45;1.10;;;1.00;;
55409;SDS011;41279;43.546;16.426;2023-04-01T10:24:42;1.30;;;1.20;;
55409;SDS011;41279;43.546;16.426;2023-04-01T10:38:29;1.65;;;1.33;;
55409;SDS011;41279;43.546;16.426;2023-04-01T10:41:01;2.05;;;1.75;;
55409;SDS011;41279;43.546;16.426;2023-04-01T10:46:54;1.63;;;1.30;;
55409;SDS011;41279;43.546;16.426;2023-04-01T10:53:05;1.75;;;1.65;;
55409;SDS011;41279;43.546;16.426;2023-04-01T10:59:21;1.50;;;1.40;;
55409;SDS011;41279;43.546;16.426;2023-04-01T11:43:00;3.55;;;2.70;;
55409;SDS011;41279;43.546;16.426;2023-04-01T11:51:27;3.70;;;2.92;;
55409;SDS011;41279;43.546;16.426;2023-04-01T11:54:06;3.20;;;2.83;;
55409;SDS011;41279;43.546;16.426;2023-04-01T11:56:39;3.58;;;3.28;;
55409;SDS011;41279;43.546;16.426;2023-04-01T12:13:41;3.95;;;2.80;;
55409;SDS011;41279;43.546;16.426;2023-04-01T12:16:26;4.53;;;2.30;;
55409;SDS011;41279;43.546;16.426;2023-04-01T12:27:35;4.35;;;2.30;;
55409;SDS011;41279;43.546;16.426;2023-04-01T12:33:05;3.60;;;2.45;;
55409;SDS011;41279;43.546;16.426;2023-04-01T12:44:20;6.22;;;2.30;;
55409;SDS011;41279;43.546;16.426;2023-04-01T12:55:34;4.10;;;2.60;;
55409;SDS011;41279;43.546;16.426;2023-04-01T13:03:43;5.85;;;2.60;;
55409;SDS011;41279;43.546;16.426;2023-04-01T13:06:18;5.65;;;2.88;;
55409;SDS011;41279;43.546;16.426;2023-04-01T13:19:58;3.78;;;2.63;;
55409;SDS011;41279;43.546;16.426;2023-04-01T13:22:45;4.22;;;2.70;;
55409;SDS011;41279;43.546;16.426;2023-04-01T13:42:31;4.35;;;2.58;;
55409;SDS011;41279;43.546;16.426;2023-04-01T14:04:58;4.82;;;2.10;;
55409;SDS011;41279;43.546;16.426;2023-04-01T14:07:44;3.47;;;2.00;;
55409;SDS011;41279;43.546;16.426;2023-04-01T14:22:12;8.50;;;2.13;;
55409;SDS011;41279;43.546;16.426;2023-04-01T14:24:45;6.07;;;1.90;;
55409;SDS011;41279;43.546;16.426;2023-04-01T14:27:37;6.38;;;2.00;;
55409;SDS011;41279;43.546;16.426;2023-04-01T14:41:48;5.15;;;1.75;;
55409;SDS011;41279;43.546;16.426;2023-04-01T14:50:15;4.43;;;1.77;;
55409;SDS011;41279;43.546;16.426;2023-04-01T14:55:42;3.58;;;1.90;;
55409;SDS011;41279;43.546;16.426;2023-04-01T14:58:15;5.65;;;2.05;;
55409;SDS011;41279;43.546;16.426;2023-04-01T15:03:33;5.35;;;2.03;;
55409;SDS011;41279;43.546;16.426;2023-04-01T15:14:18;4.15;;;1.70;;
55409;SDS011;41279;43.546;16.426;2023-04-01T15:39:57;3.63;;;1.63;;
55409;SDS011;41279;43.546;16.426;2023-04-01T15:45:31;6.63;;;2.55;;
55409;SDS011;41279;43.546;16.426;2023-04-01T15:51:15;6.28;;;2.60;;
55409;SDS011;41279;43.546;16.426;2023-04-01T15:54:06;4.63;;;2.40;;
55409;SDS011;41279;43.546;16.426;2023-04-01T15:59:54;5.85;;;2.30;;
55409;SDS011;41279;43.546;16.426;2023-04-01T16:02:35;5.55;;;2.40;;
55409;SDS011;41279;43.546;16.426;2023-04-01T16:24:12;5.40;;;2.70;;
55409;SDS011;41279;43.546;16.426;2023-04-01T16:26:50;33.60;;;15.65;;
55409;SDS011;41279;43.546;16.426;2023-04-01T16:29:26;18.55;;;10.07;;
55409;SDS011;41279;43.546;16.426;2023-04-01T16:32:05;5.18;;;3.85;;
55409;SDS011;41279;43.546;16.426;2023-04-01T16:34:47;3.42;;;2.80;;
55409;SDS011;41279;43.546;16.426;2023-04-01T16:37:37;3.83;;;3.20;;
55409;SDS011;41279;43.546;16.426;2023-04-01T16:45:43;4.15;;;3.10;;
55409;SDS011;41279;43.546;16.426;2023-04-01T16:48:19;3.67;;;3.00;;
55409;SDS011;41279;43.546;16.426;2023-04-01T16:50:59;3.75;;;2.83;;
55409;SDS011;41279;43.546;16.426;2023-04-01T16:58:33;3.00;;;2.50;;
55409;SDS011;41279;43.546;16.426;2023-04-01T17:04:04;3.20;;;2.70;;
55409;SDS011;41279;43.546;16.426;2023-04-01T17:09:14;2.95;;;2.58;;
55409;SDS011;41279;43.546;16.426;2023-04-01T17:11:56;3.15;;;2.50;;
55409;SDS011;41279;43.546;16.426;2023-04-01T17:14:28;3.00;;;2.60;;
55409;SDS011;41279;43.546;16.426;2023-04-01T17:27:46;3.33;;;2.60;;
55409;SDS011;41279;43.546;16.426;2023-04-01T17:30:35;3.30;;;2.60;;
55409;SDS011;41279;43.546;16.426;2023-04-01T17:51:37;2.85;;;2.55;;
55409;SDS011;41279;43.546;16.426;2023-04-01T18:11:44;3.15;;;2.80;;
55409;SDS011;41279;43.546;16.426;2023-04-01T18:14:30;3.50;;;2.80;;
55409;SDS011;41279;43.546;16.426;2023-04-01T18:17:23;3.85;;;3.30;;
55409;SDS011;41279;43.546;16.426;2023-04-01T18:22:41;3.78;;;3.08;;
55409;SDS011;41279;43.546;16.426;2023-04-01T18:27:51;3.72;;;3.00;;
55409;SDS011;41279;43.546;16.426;2023-04-01T18:30:39;3.88;;;3.00;;
55409;SDS011;41279;43.546;16.426;2023-04-01T18:40:54;5.47;;;4.55;;
55409;SDS011;41279;43.546;16.426;2023-04-01T18:43:59;7.32;;;4.88;;
55409;SDS011;41279;43.546;16.426;2023-04-01T18:49:29;4.35;;;3.47;;
55409;SDS011;41279;43.546;16.426;2023-04-01T18:52:44;4.43;;;3.40;;
55409;SDS011;41279;43.546;16.426;2023-04-01T18:57:46;7.50;;;4.50;;
55409;SDS011;41279;43.546;16.426;2023-04-01T19:00:19;7.28;;;5.28;;
55409;SDS011;41279;43.546;16.426;2023-04-01T19:05:19;9.73;;;6.53;;
55409;SDS011;41279;43.546;16.426;2023-04-01T19:07:56;8.80;;;6.30;;
55409;SDS011;41279;43.546;16.426;2023-04-01T19:16:20;16.20;;;10.13;;
55409;SDS011;41279;43.546;16.426;2023-04-01T19:27:46;6.10;;;4.10;;
55409;SDS011;41279;43.546;16.426;2023-04-01T19:30:25;5.75;;;4.13;;
55409;SDS011;41279;43.546;16.426;2023-04-01T19:38:43;2.92;;;1.63;;
55409;SDS011;41279;43.546;16.426;2023-04-01T19:43:54;2.05;;;1.30;;
55409;SDS011;41279;43.546;16.426;2023-04-01T19:49:36;4.60;;;2.70;;
55409;SDS011;41279;43.546;16.426;2023-04-01T19:52:14;4.90;;;2.67;;
55409;SDS011;41279;43.546;16.426;2023-04-01T19:54:57;5.60;;;3.15;;
55409;SDS011;41279;43.546;16.426;2023-04-01T19:57:38;3.97;;;2.63;;
55409;SDS011;41279;43.546;16.426;2023-04-01T20:00:15;3.65;;;2.22;;
55409;SDS011;41279;43.546;16.426;2023-04-01T20:08:23;3.72;;;2.25;;
55409;SDS011;41279;43.546;16.426;2023-04-01T20:16:11;6.22;;;3.40;;
55409;SDS011;41279;43.546;16.426;2023-04-01T20:21:19;6.32;;;3.72;;
55409;SDS011;41279;43.546;16.426;2023-04-01T20:26:50;5.93;;;3.33;;
55409;SDS011;41279;43.546;16.426;2023-04-01T20:29:35;3.88;;;2.38;;
55409;SDS011;41279;43.546;16.426;2023-04-01T20:32:10;4.65;;;2.70;;
55409;SDS011;41279;43.546;16.426;2023-04-01T20:43:35;6.10;;;3.28;;
55409;SDS011;41279;43.546;16.426;2023-04-01T20:46:55;6.63;;;2.90;;
55409;SDS011;41279;43.546;16.426;2023-04-01T20:52:22;6.57;;;4.00;;
55409;SDS011;41279;43.546;16.426;2023-04-01T20:55:17;7.95;;;3.35;;
55409;SDS011;41279;43.546;16.426;2023-04-01T20:58:05;6.85;;;3.10;;
55409;SDS011;41279;43.546;16.426;2023-04-01T21:03:43;6.07;;;2.85;;
55409;SDS011;41279;43.546;16.426;2023-04-01T21:06:22;4.72;;;2.78;;
55409;SDS011;41279;43.546;16.426;2023-04-01T21:12:11;9.15;;;4.55;;
55409;SDS011;41279;43.546;16.426;2023-04-01T21:34:55;6.28;;;2.90;;
55409;SDS011;41279;43.546;16.426;2023-04-01T22:12:50;5.28;;;3.03;;
55409;SDS011;41279;43.546;16.426;2023-04-01T22:18:22;6.97;;;2.75;;
55409;SDS011;41279;43.546;16.426;2023-04-01T22:20:57;7.15;;;3.63;;
55409;SDS011;41279;43.546;16.426;2023-04-01T22:23:39;7.50;;;3.35;;
55409;SDS011;41279;43.546;16.426;2023-04-01T22:31:49;5.85;;;2.20;;
55409;SDS011;41279;43.546;16.426;2023-04-01T22:44:57;4.25;;;2.10;;
55409;SDS011;41279;43.546;16.426;2023-04-01T22:52:42;4.03;;;2.03;;
55409;SDS011;41279;43.546;16.426;2023-04-01T22:55:27;4.13;;;1.83;;
55409;SDS011;41279;43.546;16.426;2023-04-01T22:57:58;3.47;;;2.00;;
55409;SDS011;41279;43.546;16.426;2023-04-01T23:00:35;5.85;;;1.90;;
55409;SDS011;41279;43.546;16.426;2023-04-01T23:03:19;5.43;;;2.08;;
55409;SDS011;41279;43.546;16.426;2023-04-01T23:05:51;4.57;;;2.35;;
55409;SDS011;41279;43.546;16.426;2023-04-01T23:10:57;4.40;;;2.15;;
55409;SDS011;41279;43.546;16.426;2023-04-01T23:13:50;3.17;;;1.80;;
55409;SDS011;41279;43.546;16.426;2023-04-01T23:16:24;4.13;;;1.90;;
55409;SDS011;41279;43.546;16.426;2023-04-01T23:19:08;4.60;;;2.00;;
55409;SDS011;41279;43.546;16.426;2023-04-01T23:21:43;3.40;;;1.87;;
55409;SDS011;41279;43.546;16.426;2023-04-01T23:29:51;3.30;;;1.83;;
55409;SDS011;41279;43.546;16.426;2023-04-01T23:32:23;3.60;;;1.90;;
55409;SDS011;41279;43.546;16.426;2023-04-01T23:34:55;4.00;;;2.00;;
55409;SDS011;41279;43.546;16.426;2023-04-01T23:37:23;3.40;;;1.80;;
55409;SDS011;41279;43.546;16.426;2023-04-01T23:39:50;2.35;;;1.60;;
55409;SDS011;41279;43.546;16.426;2023-04-01T23:42:19;4.13;;;1.77;;
55409;SDS011;41279;43.546;16.426;2023-04-01T23:45:13;4.53;;;2.20;;
55409;SDS011;41279;43.546;16.426;2023-04-01T23:47:39;4.15;;;2.00;;
55409;SDS011;41279;43.546;16.426;2023-04-01T23:50:13;3.60;;;1.73;;
55409;SDS011;41279;43.546;16.426;2023-04-01T23:52:43;3.60;;;1.83;;
55409;SDS011;41279;43.546;16.426;2023-04-01T23:55:13;3.28;;;2.00;;
55409;SDS011;41279;43.546;16.426;2023-04-01T23:57:59;3.10;;;1.70;;
